createdAt,value
2018-11-07T00:01:37.808Z,7.70
2018-11-07T00:04:08.492Z,7.20
2018-11-07T00:06:39.130Z,6.90
2018-11-07T00:09:10.173Z,6.73
2018-11-07T00:11:40.776Z,6.50
2018-11-07T00:14:11.416Z,6.73
2018-11-07T00:16:42.096Z,7.07
2018-11-07T00:19:12.727Z,6.77
2018-11-07T00:21:43.432Z,6.57
2018-11-07T00:24:14.685Z,6.73
2018-11-07T00:26:45.436Z,6.17
2018-11-07T00:29:16.114Z,6.70
2018-11-07T00:31:46.731Z,6.23
2018-11-07T00:34:17.373Z,6.50
2018-11-07T00:36:48.007Z,7.00
2018-11-07T00:39:18.653Z,6.30
2018-11-07T00:41:49.290Z,6.40
2018-11-07T00:44:19.900Z,6.40
2018-11-07T00:46:50.630Z,6.53
2018-11-07T00:49:21.262Z,6.10
2018-11-07T00:51:51.972Z,6.93
2018-11-07T00:54:22.655Z,6.27
2018-11-07T00:56:53.324Z,6.00
2018-11-07T00:59:23.999Z,5.47
2018-11-07T01:01:54.673Z,5.60
2018-11-07T01:04:25.305Z,6.50
2018-11-07T01:06:56.289Z,5.43
2018-11-07T01:09:26.905Z,5.40
2018-11-07T01:11:57.543Z,5.20
2018-11-07T01:14:28.210Z,5.80
2018-11-07T01:16:58.878Z,5.20
2018-11-07T01:19:29.484Z,5.50
2018-11-07T01:22:00.175Z,5.30
2018-11-07T01:24:30.795Z,4.70
2018-11-07T01:27:01.481Z,4.93
2018-11-07T01:29:32.144Z,5.90
2018-11-07T01:32:02.850Z,5.67
2018-11-07T01:34:33.508Z,5.70
2018-11-07T01:37:04.244Z,5.87
2018-11-07T01:39:34.954Z,5.63
2018-11-07T01:42:05.985Z,5.67
2018-11-07T01:44:36.632Z,5.50
2018-11-07T01:47:07.317Z,5.27
2018-11-07T01:49:38.012Z,5.87
2018-11-07T01:52:08.762Z,5.63
2018-11-07T01:54:39.375Z,5.30
2018-11-07T01:57:10.063Z,5.30
2018-11-07T01:59:40.701Z,5.73
2018-11-07T02:02:11.415Z,5.60
2018-11-07T02:04:42.041Z,5.50
2018-11-07T02:07:12.733Z,5.30
2018-11-07T02:09:43.435Z,5.67
2018-11-07T02:12:14.095Z,5.10
2018-11-07T02:14:44.720Z,5.23
2018-11-07T02:17:15.380Z,5.20
2018-11-07T02:19:46.110Z,4.73
2018-11-07T02:22:16.755Z,5.17
2018-11-07T02:24:47.419Z,5.73
2018-11-07T02:27:18.051Z,5.67
2018-11-07T02:29:48.701Z,5.50
2018-11-07T02:32:19.376Z,5.60
2018-11-07T02:34:50.063Z,5.63
2018-11-07T02:37:20.691Z,5.43
2018-11-07T02:39:51.355Z,5.50
2018-11-07T02:42:21.996Z,6.30
2018-11-07T02:44:52.611Z,5.73
2018-11-07T02:47:23.246Z,5.73
2018-11-07T02:49:53.961Z,5.53
2018-11-07T02:52:24.606Z,5.80
2018-11-07T02:54:55.284Z,6.00
2018-11-07T02:57:25.931Z,5.60
2018-11-07T02:59:56.605Z,5.80
2018-11-07T03:02:27.312Z,6.07
2018-11-07T03:04:58.040Z,5.80
2018-11-07T03:07:28.728Z,5.90
2018-11-07T03:09:59.363Z,5.70
2018-11-07T03:12:30.041Z,5.67
2018-11-07T03:15:00.723Z,5.63
2018-11-07T03:17:31.377Z,5.30
2018-11-07T03:20:02.052Z,5.97
2018-11-07T03:22:32.650Z,5.37
2018-11-07T03:25:03.335Z,5.40
2018-11-07T03:27:33.946Z,5.33
2018-11-07T03:30:05.404Z,5.00
2018-11-07T03:32:36.059Z,4.90
2018-11-07T03:35:11.560Z,4.77
2018-11-07T03:37:42.257Z,5.03
2018-11-07T03:40:12.991Z,5.23
2018-11-07T03:42:43.731Z,4.50
2018-11-07T03:45:14.404Z,4.70
2018-11-07T03:47:45.008Z,4.60
2018-11-07T03:50:15.632Z,4.70
2018-11-07T03:52:46.311Z,5.07
2018-11-07T03:55:16.937Z,4.77
2018-11-07T03:57:47.540Z,4.67
2018-11-07T04:00:18.201Z,4.73
2018-11-07T04:02:48.809Z,4.40
2018-11-07T04:05:19.551Z,4.73
2018-11-07T04:07:50.158Z,4.47
2018-11-07T04:10:20.796Z,4.90
2018-11-07T04:12:51.535Z,5.10
2018-11-07T04:15:22.218Z,4.63
2018-11-07T04:17:52.871Z,5.07
2018-11-07T04:20:23.460Z,4.53
2018-11-07T04:22:54.101Z,4.17
2018-11-07T04:25:24.769Z,4.70
2018-11-07T04:27:55.434Z,4.40
2018-11-07T04:30:26.114Z,4.80
2018-11-07T04:32:56.720Z,4.17
2018-11-07T04:35:27.371Z,4.80
2018-11-07T04:37:58.037Z,4.90
2018-11-07T04:40:28.620Z,4.63
2018-11-07T04:42:59.271Z,4.30
2018-11-07T04:45:29.909Z,4.77
2018-11-07T04:48:00.549Z,5.00
2018-11-07T04:50:31.163Z,4.30
2018-11-07T04:53:01.784Z,4.60
2018-11-07T04:55:32.448Z,4.70
2018-11-07T04:58:03.124Z,4.80
2018-11-07T05:00:33.770Z,4.37
2018-11-07T05:03:04.455Z,4.90
2018-11-07T05:05:35.088Z,3.93
2018-11-07T05:08:05.787Z,4.40
2018-11-07T05:10:36.443Z,4.70
2018-11-07T05:13:07.116Z,4.70
2018-11-07T05:15:37.794Z,4.43
2018-11-07T05:18:08.468Z,4.60
2018-11-07T05:20:39.064Z,4.37
2018-11-07T05:23:09.724Z,4.63
2018-11-07T05:25:40.376Z,4.53
2018-11-07T05:28:11.120Z,4.60
2018-11-07T05:30:41.738Z,4.70
2018-11-07T05:33:12.388Z,5.27
2018-11-07T05:35:43.028Z,4.53
2018-11-07T05:38:13.696Z,4.80
2018-11-07T05:40:44.302Z,4.07
2018-11-07T05:43:14.970Z,4.60
2018-11-07T05:45:45.655Z,4.47
2018-11-07T05:48:16.287Z,4.63
2018-11-07T05:50:46.945Z,4.27
2018-11-07T05:53:17.642Z,4.63
2018-11-07T05:55:48.380Z,4.27
2018-11-07T05:58:19.015Z,4.17
2018-11-07T06:00:49.696Z,4.43
2018-11-07T06:03:20.413Z,4.30
2018-11-07T06:05:51.073Z,3.87
2018-11-07T06:08:21.735Z,3.93
2018-11-07T06:10:52.388Z,4.13
2018-11-07T06:13:23.017Z,3.60
2018-11-07T06:15:53.673Z,3.87
2018-11-07T06:18:24.359Z,3.90
2018-11-07T06:20:55.000Z,4.10
2018-11-07T06:23:25.627Z,3.80
2018-11-07T06:25:56.571Z,3.67
2018-11-07T06:28:27.209Z,3.47
2018-11-07T06:30:58.113Z,3.70
2018-11-07T06:33:28.767Z,3.20
2018-11-07T06:35:59.430Z,3.43
2018-11-07T06:38:30.067Z,3.30
2018-11-07T06:41:00.703Z,3.33
2018-11-07T06:43:31.348Z,3.10
2018-11-07T06:46:02.116Z,3.53
2018-11-07T06:48:32.830Z,3.90
2018-11-07T06:51:03.538Z,3.20
2018-11-07T06:53:34.195Z,3.10
2018-11-07T06:56:04.826Z,2.83
2018-11-07T06:58:35.460Z,2.90
2018-11-07T07:01:06.178Z,2.73
2018-11-07T07:03:36.782Z,3.23
2018-11-07T07:06:07.628Z,2.60
2018-11-07T07:08:38.430Z,2.70
2018-11-07T07:11:09.227Z,2.43
2018-11-07T07:13:40.012Z,2.80
2018-11-07T07:16:10.667Z,2.53
2018-11-07T07:18:41.328Z,2.50
2018-11-07T07:21:11.959Z,2.40
2018-11-07T07:23:42.692Z,2.20
2018-11-07T07:26:13.387Z,2.50
2018-11-07T07:28:44.076Z,2.80
2018-11-07T07:31:14.763Z,2.33
2018-11-07T07:33:45.524Z,2.50
2018-11-07T07:36:16.129Z,2.00
2018-11-07T07:38:46.824Z,2.10
2018-11-07T07:41:17.553Z,2.10
2018-11-07T07:43:48.205Z,1.83
2018-11-07T07:46:18.941Z,2.10
2018-11-07T07:48:49.622Z,1.90
2018-11-07T07:51:20.323Z,1.87
2018-11-07T07:53:51.067Z,1.63
2018-11-07T07:56:21.768Z,2.00
2018-11-07T07:58:52.424Z,1.67
2018-11-07T08:01:23.108Z,1.77
2018-11-07T08:03:53.788Z,1.70
2018-11-07T08:06:24.421Z,1.57
2018-11-07T08:08:55.085Z,1.50
2018-11-07T08:11:25.726Z,1.70
2018-11-07T08:13:56.457Z,1.53
2018-11-07T08:16:27.102Z,1.50
2018-11-07T08:18:57.733Z,1.70
2018-11-07T08:21:28.357Z,1.70
2018-11-07T08:23:59.020Z,1.30
2018-11-07T08:26:29.769Z,1.10
2018-11-07T08:29:00.716Z,1.30
2018-11-07T08:31:31.660Z,1.30
2018-11-07T08:34:02.324Z,1.50
2018-11-07T08:36:33.003Z,1.40
2018-11-07T08:39:04.358Z,1.37
2018-11-07T08:41:34.979Z,1.20
2018-11-07T08:44:05.908Z,1.60
2018-11-07T08:46:36.608Z,1.30
2018-11-07T08:49:08.122Z,1.33
2018-11-07T08:51:38.782Z,1.50
2018-11-07T08:54:09.481Z,1.20
2018-11-07T08:56:40.245Z,1.20
2018-11-07T08:59:10.912Z,1.20
2018-11-07T09:01:41.562Z,1.20
2018-11-07T09:04:12.392Z,1.20
2018-11-07T09:06:43.076Z,1.10
2018-11-07T09:09:13.738Z,1.40
2018-11-07T09:11:44.423Z,1.23
2018-11-07T09:14:15.052Z,1.30
2018-11-07T09:16:45.727Z,1.10
2018-11-07T09:19:16.355Z,1.10
2018-11-07T09:21:47.020Z,1.10
2018-11-07T09:24:17.792Z,1.20
2018-11-07T09:26:48.526Z,1.13
2018-11-07T09:29:19.231Z,1.30
2018-11-07T09:31:49.844Z,0.90
2018-11-07T09:34:20.558Z,1.00
2018-11-07T09:36:51.221Z,1.13
2018-11-07T09:39:21.974Z,0.90
2018-11-07T09:41:52.694Z,1.17
2018-11-07T09:44:23.469Z,0.90
2018-11-07T09:46:54.124Z,0.90
2018-11-07T09:49:24.818Z,1.00
2018-11-07T09:51:55.535Z,0.93
2018-11-07T09:54:26.252Z,1.10
2018-11-07T09:56:56.914Z,0.90
2018-11-07T09:59:27.586Z,1.50
2018-11-07T10:01:58.288Z,0.90
2018-11-07T10:04:28.935Z,0.90
2018-11-07T10:06:59.688Z,1.07
2018-11-07T10:09:30.431Z,1.00
2018-11-07T10:12:01.109Z,1.00
2018-11-07T10:14:31.861Z,0.90
2018-11-07T10:17:02.571Z,1.20
2018-11-07T10:20:36.405Z,0.80
2018-11-07T10:23:07.149Z,0.83
2018-11-07T10:25:37.870Z,0.80
2018-11-07T10:28:09.021Z,0.93
2018-11-07T10:30:39.339Z,0.87
2018-11-07T10:33:10.008Z,1.00
2018-11-07T10:35:40.649Z,0.80
2018-11-07T10:38:11.425Z,0.90
2018-11-07T10:40:42.149Z,1.20
2018-11-07T10:43:12.847Z,0.80
2018-11-07T10:45:43.496Z,0.80
2018-11-07T10:48:14.218Z,0.90
2018-11-07T10:50:44.913Z,0.90
2018-11-07T10:53:15.582Z,0.80
2018-11-07T10:55:46.261Z,1.10
2018-11-07T10:58:17.050Z,0.80
2018-11-07T11:00:52.978Z,0.77
2018-11-07T11:03:28.932Z,0.77
2018-11-07T11:05:59.846Z,0.90
2018-11-07T11:08:30.509Z,0.80
2018-11-07T11:11:01.351Z,0.80
2018-11-07T11:13:32.015Z,0.80
2018-11-07T11:16:02.680Z,0.60
2018-11-07T11:18:33.338Z,0.80
2018-11-07T11:21:04.038Z,1.00
2018-11-07T11:23:34.743Z,0.80
2018-11-07T11:26:05.550Z,0.73
2018-11-07T11:28:36.304Z,0.90
2018-11-07T11:31:07.038Z,0.80
2018-11-07T11:33:37.756Z,0.90
2018-11-07T11:36:14.427Z,1.00
2018-11-07T11:38:45.077Z,0.90
2018-11-07T11:41:15.902Z,0.90
2018-11-07T11:43:46.532Z,0.67
2018-11-07T11:46:17.211Z,0.90
2018-11-07T11:48:47.914Z,1.00
2018-11-07T11:51:18.554Z,0.87
2018-11-07T11:53:49.253Z,0.90
2018-11-07T11:56:19.917Z,1.07
2018-11-07T11:58:50.651Z,0.80
2018-11-07T12:01:21.264Z,0.90
2018-11-07T12:03:51.935Z,0.90
2018-11-07T12:06:22.665Z,0.80
2018-11-07T12:08:53.368Z,0.93
2018-11-07T12:11:24.149Z,1.00
2018-11-07T12:13:54.788Z,0.90
2018-11-07T12:16:25.465Z,0.80
2018-11-07T12:18:56.077Z,0.80
2018-11-07T12:21:26.815Z,0.70
2018-11-07T12:23:57.404Z,0.80
2018-11-07T12:26:28.083Z,0.80
2018-11-07T12:28:58.864Z,0.80
2018-11-07T12:31:29.520Z,0.80
2018-11-07T12:34:00.141Z,0.80
2018-11-07T12:36:31.004Z,0.70
2018-11-07T12:39:01.723Z,1.00
2018-11-07T12:41:32.517Z,0.50
2018-11-07T12:44:03.328Z,1.00
2018-11-07T12:46:34.084Z,0.70
2018-11-07T12:49:04.882Z,0.63
2018-11-07T12:51:35.656Z,0.70
2018-11-07T12:54:06.501Z,0.80
2018-11-07T12:56:37.258Z,0.60
2018-11-07T12:59:08.161Z,0.70
2018-11-07T13:01:38.848Z,0.60
2018-11-07T13:04:09.568Z,0.60
2018-11-07T13:06:40.252Z,0.70
2018-11-07T13:09:12.432Z,0.50
2018-11-07T13:11:43.310Z,0.70
2018-11-07T13:14:14.039Z,0.67
2018-11-07T13:16:44.783Z,0.50
2018-11-07T13:19:15.390Z,0.70
2018-11-07T13:21:46.103Z,0.67
2018-11-07T13:24:16.752Z,0.77
2018-11-07T13:26:47.460Z,0.80
2018-11-07T13:29:18.174Z,0.73
2018-11-07T13:31:48.967Z,0.70
2018-11-07T13:34:19.751Z,0.80
2018-11-07T13:36:50.589Z,0.50
2018-11-07T13:39:21.529Z,1.03
2018-11-07T13:41:51.877Z,0.70
2018-11-07T13:44:22.597Z,1.00
2018-11-07T13:46:53.231Z,0.70
2018-11-07T13:49:23.904Z,0.90
2018-11-07T13:51:54.629Z,0.70
2018-11-07T13:54:25.357Z,0.80
2018-11-07T13:56:56.154Z,0.70
2018-11-07T13:59:26.910Z,0.87
2018-11-07T14:01:57.654Z,0.80
2018-11-07T14:04:28.429Z,0.90
2018-11-07T14:06:59.475Z,0.60
2018-11-07T14:09:30.122Z,0.70
2018-11-07T14:12:00.844Z,0.70
2018-11-07T14:14:31.513Z,0.70
2018-11-07T14:17:02.340Z,0.80
2018-11-07T14:19:33.654Z,0.90
2018-11-07T14:22:04.372Z,0.60
2018-11-07T14:24:35.171Z,0.90
2018-11-07T14:27:05.983Z,0.80
2018-11-07T14:29:36.871Z,0.60
2018-11-07T14:32:07.728Z,0.70
2018-11-07T14:34:38.910Z,0.70
2018-11-07T14:37:09.543Z,0.80
2018-11-07T14:39:40.286Z,0.77
2018-11-07T14:42:11.100Z,0.70
2018-11-07T14:44:41.819Z,0.70
2018-11-07T14:47:12.578Z,0.60
2018-11-07T14:49:43.178Z,0.80
2018-11-07T14:52:13.958Z,0.80
2018-11-07T14:54:44.644Z,0.70
2018-11-07T14:57:15.351Z,0.80
2018-11-07T14:59:46.052Z,0.83
2018-11-07T15:02:16.788Z,0.80
2018-11-07T15:04:47.542Z,0.70
2018-11-07T15:07:18.251Z,0.60
2018-11-07T15:09:48.911Z,0.80
2018-11-07T15:12:19.573Z,0.70
2018-11-07T15:14:50.212Z,0.67
2018-11-07T15:17:20.874Z,1.07
2018-11-07T15:19:51.563Z,0.80
2018-11-07T15:22:22.526Z,0.63
2018-11-07T15:24:53.213Z,0.73
2018-11-07T15:27:23.852Z,0.80
2018-11-07T15:29:54.470Z,0.90
2018-11-07T15:32:25.152Z,0.80
2018-11-07T15:34:55.793Z,0.63
2018-11-07T15:37:26.540Z,0.87
2018-11-07T15:39:57.232Z,0.80
2018-11-07T15:42:28.474Z,0.90
2018-11-07T15:44:59.202Z,0.80
2018-11-07T15:47:29.919Z,0.70
2018-11-07T15:51:07.316Z,0.87
2018-11-07T15:53:38.127Z,1.00
2018-11-07T15:56:09.174Z,1.00
2018-11-07T15:58:39.849Z,0.80
2018-11-07T16:01:10.544Z,0.70
2018-11-07T16:03:46.419Z,0.77
2018-11-07T16:06:18.503Z,0.90
2018-11-07T16:08:49.086Z,1.00
2018-11-07T16:11:19.696Z,0.90
2018-11-07T16:13:50.475Z,0.80
2018-11-07T16:16:21.065Z,0.90
2018-11-07T16:18:51.819Z,0.90
2018-11-07T16:21:22.560Z,1.00
2018-11-07T16:23:53.500Z,0.80
2018-11-07T16:26:24.257Z,0.70
2018-11-07T16:28:54.998Z,0.90
2018-11-07T16:31:25.601Z,1.00
2018-11-07T16:33:56.277Z,1.00
2018-11-07T16:36:26.875Z,1.30
2018-11-07T16:38:57.479Z,0.90
2018-11-07T16:41:28.319Z,1.00
2018-11-07T16:43:58.784Z,0.90
2018-11-07T16:46:29.450Z,1.10
2018-11-07T16:49:00.138Z,1.10
2018-11-07T16:51:30.771Z,1.30
2018-11-07T16:54:01.492Z,1.30
2018-11-07T16:56:32.154Z,1.20
2018-11-07T16:59:02.957Z,1.00
2018-11-07T17:01:33.539Z,1.07
2018-11-07T17:04:04.223Z,1.07
2018-11-07T17:06:34.876Z,1.30
2018-11-07T17:09:07.643Z,1.10
2018-11-07T17:11:38.730Z,1.20
2018-11-07T17:14:10.257Z,1.27
2018-11-07T17:16:40.852Z,1.17
2018-11-07T17:19:11.537Z,1.40
2018-11-07T17:21:42.151Z,1.27
2018-11-07T17:24:13.003Z,1.40
2018-11-07T17:26:43.648Z,1.43
2018-11-07T17:29:14.252Z,1.50
2018-11-07T17:31:44.967Z,1.20
2018-11-07T17:34:15.706Z,1.30
2018-11-07T17:36:46.393Z,1.57
2018-11-07T17:39:17.028Z,1.60
2018-11-07T17:41:47.804Z,1.43
2018-11-07T17:44:18.541Z,1.40
2018-11-07T17:46:49.172Z,1.40
2018-11-07T17:49:19.847Z,1.30
2018-11-07T17:51:50.826Z,1.80
2018-11-07T17:54:21.465Z,1.30
2018-11-07T17:56:52.142Z,1.40
2018-11-07T17:59:22.866Z,1.70
2018-11-07T18:01:53.546Z,1.53
2018-11-07T18:04:24.179Z,1.43
2018-11-07T18:06:54.846Z,1.40
2018-11-07T18:09:25.469Z,1.30
2018-11-07T18:11:57.801Z,1.10
2018-11-07T18:14:28.500Z,1.73
2018-11-07T18:16:59.134Z,1.40
2018-11-07T18:19:29.841Z,1.40
2018-11-07T18:22:00.501Z,1.63
2018-11-07T18:24:31.147Z,1.60
2018-11-07T18:27:01.950Z,1.60
2018-11-07T18:29:32.681Z,1.67
2018-11-07T18:32:03.427Z,1.67
2018-11-07T18:34:36.236Z,1.67
2018-11-07T18:37:07.835Z,1.53
2018-11-07T18:39:38.953Z,1.70
2018-11-07T18:42:09.708Z,1.33
2018-11-07T18:44:40.380Z,1.90
2018-11-07T18:47:11.169Z,1.70
2018-11-07T18:49:42.075Z,1.50
2018-11-07T18:52:12.725Z,1.90
2018-11-07T18:54:43.376Z,1.77
2018-11-07T18:57:14.040Z,1.80
2018-11-07T18:59:44.664Z,1.67
2018-11-07T19:02:15.322Z,1.47
2018-11-07T19:04:45.984Z,1.60
2018-11-07T19:07:16.625Z,1.70
2018-11-07T19:09:48.277Z,1.37
2018-11-07T19:12:18.965Z,1.30
2018-11-07T19:14:49.626Z,1.57
2018-11-07T19:17:20.375Z,1.37
2018-11-07T19:19:51.141Z,1.30
2018-11-07T19:22:21.755Z,1.30
2018-11-07T19:24:52.524Z,1.30
2018-11-07T19:27:23.303Z,1.20
2018-11-07T19:29:53.846Z,1.50
2018-11-07T19:32:24.504Z,1.27
2018-11-07T19:34:55.172Z,1.10
2018-11-07T19:37:25.787Z,1.40
2018-11-07T19:39:56.486Z,1.20
2018-11-07T19:42:27.301Z,1.23
2018-11-07T19:44:57.930Z,1.20
2018-11-07T19:47:28.643Z,1.10
2018-11-07T19:49:59.294Z,1.20
2018-11-07T19:52:30.039Z,1.10
2018-11-07T19:55:00.741Z,1.40
2018-11-07T19:57:31.399Z,1.20
2018-11-07T20:00:02.148Z,1.20
2018-11-07T20:02:33.607Z,1.60
2018-11-07T20:05:04.416Z,1.40
2018-11-07T20:07:35.313Z,1.40
2018-11-07T20:10:08.492Z,1.40
2018-11-07T20:12:39.332Z,1.20
2018-11-07T20:15:11.915Z,1.10
2018-11-07T20:17:42.639Z,1.20
2018-11-07T20:20:13.699Z,1.10
2018-11-07T20:22:44.471Z,1.00
2018-11-07T20:25:15.707Z,1.20
2018-11-07T20:27:46.466Z,1.20
2018-11-07T20:30:18.748Z,1.03
2018-11-07T20:32:49.447Z,1.03
2018-11-07T20:35:21.078Z,1.17
2018-11-07T20:37:51.743Z,1.23
2018-11-07T20:40:23.100Z,1.20
2018-11-07T20:42:53.845Z,1.20
2018-11-07T20:45:24.551Z,1.10
2018-11-07T20:47:55.277Z,1.27
2018-11-07T20:50:25.923Z,1.13
2018-11-07T20:52:56.572Z,1.50
2018-11-07T20:55:27.255Z,1.57
2018-11-07T20:57:58.012Z,1.60
2018-11-07T21:00:28.725Z,1.30
2018-11-07T21:02:59.390Z,1.30
2018-11-07T21:05:30.126Z,1.30
2018-11-07T21:08:00.766Z,1.30
2018-11-07T21:10:31.429Z,1.30
2018-11-07T21:13:02.050Z,1.20
2018-11-07T21:15:32.777Z,1.33
2018-11-07T21:18:03.418Z,1.30
2018-11-07T21:20:34.125Z,1.40
2018-11-07T21:23:04.897Z,1.10
2018-11-07T21:25:35.570Z,1.20
2018-11-07T21:28:06.208Z,1.17
2018-11-07T21:30:36.943Z,1.30
2018-11-07T21:33:07.603Z,1.00
2018-11-07T21:35:38.366Z,1.00
2018-11-07T21:38:09.047Z,1.03
2018-11-07T21:40:39.701Z,1.27
2018-11-07T21:43:10.329Z,1.23
2018-11-07T21:45:40.997Z,1.20
2018-11-07T21:48:11.699Z,1.17
2018-11-07T21:50:42.319Z,1.00
2018-11-07T21:53:12.957Z,1.20
2018-11-07T21:55:43.608Z,1.00
2018-11-07T21:58:14.341Z,1.20
2018-11-07T22:00:44.944Z,1.00
2018-11-07T22:03:15.643Z,1.10
2018-11-07T22:05:46.364Z,0.90
2018-11-07T22:08:16.999Z,1.30
2018-11-07T22:10:47.682Z,1.20
2018-11-07T22:13:18.466Z,1.00
2018-11-07T22:15:49.035Z,1.03
2018-11-07T22:18:19.766Z,1.20
2018-11-07T22:20:50.408Z,1.00
2018-11-07T22:23:21.087Z,1.00
2018-11-07T22:25:51.740Z,1.10
2018-11-07T22:28:22.488Z,1.20
2018-11-07T22:30:53.130Z,1.20
2018-11-07T22:33:23.767Z,1.20
2018-11-07T22:35:54.424Z,1.27
2018-11-07T22:38:25.031Z,1.20
2018-11-07T22:40:55.669Z,1.60
2018-11-07T22:43:26.322Z,1.10
2018-11-07T22:45:57.023Z,1.33
2018-11-07T22:48:27.644Z,1.20
2018-11-07T22:50:58.313Z,1.13
2018-11-07T22:53:29.026Z,1.40
2018-11-07T22:55:59.907Z,1.20
2018-11-07T22:58:30.613Z,1.10
2018-11-07T23:01:06.536Z,1.37
2018-11-07T23:03:37.295Z,1.10
2018-11-07T23:06:07.989Z,1.50
2018-11-07T23:08:38.674Z,1.00
2018-11-07T23:11:09.433Z,1.13
2018-11-07T23:13:40.058Z,1.10
2018-11-07T23:16:10.703Z,1.07
2018-11-07T23:18:41.535Z,1.10
2018-11-07T23:21:12.309Z,1.33
2018-11-07T23:23:42.904Z,1.20
2018-11-07T23:26:13.558Z,1.20
2018-11-07T23:28:44.172Z,1.07
2018-11-07T23:31:14.839Z,0.87
2018-11-07T23:33:45.485Z,1.03
2018-11-07T23:36:16.130Z,1.20
2018-11-07T23:38:46.850Z,1.10
2018-11-07T23:41:17.505Z,1.20
2018-11-07T23:43:48.376Z,1.20
2018-11-07T23:46:19.168Z,1.20
2018-11-07T23:48:49.826Z,1.07
2018-11-07T23:51:20.455Z,1.20
2018-11-07T23:53:51.112Z,1.07
2018-11-07T23:56:21.802Z,1.33
2018-11-07T23:58:52.511Z,1.40
